createdAt,value
2023-01-21T00:03:25.081Z,8.60
2023-01-21T00:08:30.284Z,8.50
2023-01-21T00:13:35.147Z,8.40
2023-01-21T00:18:38.626Z,8.30
2023-01-21T00:23:45.951Z,8.30
2023-01-21T00:28:49.445Z,8.30
2023-01-21T00:33:53.055Z,8.20
2023-01-21T00:38:58.046Z,8.30
2023-01-21T00:44:01.570Z,8.30
2023-01-21T00:49:05.281Z,8.40
2023-01-21T00:54:10.321Z,8.40
2023-01-21T00:59:13.824Z,8.50
2023-01-21T01:04:17.454Z,8.50
2023-01-21T01:09:22.277Z,8.60
2023-01-21T01:14:25.741Z,8.60
2023-01-21T01:19:29.634Z,8.60
2023-01-21T01:24:34.412Z,8.70
2023-01-21T01:29:37.900Z,8.70
2023-01-21T01:34:41.313Z,8.70
2023-01-21T01:39:46.123Z,8.70
2023-01-21T01:44:57.736Z,8.70
2023-01-21T01:50:03.107Z,8.70
2023-01-21T01:55:09.724Z,8.70
2023-01-21T02:00:14.627Z,8.70
2023-01-21T02:05:18.234Z,8.70
2023-01-21T02:10:23.220Z,8.70
2023-01-21T02:15:34.657Z,8.70
2023-01-21T02:21:23.443Z,8.70
2023-01-21T02:27:14.790Z,8.70
2023-01-21T02:32:57.169Z,8.60
2023-01-21T02:38:08.050Z,8.60
2023-01-21T02:43:19.479Z,8.60
2023-01-21T02:48:33.623Z,8.60
2023-01-21T02:53:38.084Z,8.60
2023-01-21T02:58:45.144Z,8.60
2023-01-21T03:04:25.019Z,8.60
2023-01-21T03:09:30.277Z,8.60
2023-01-21T03:14:56.485Z,8.60
2023-01-21T03:20:07.253Z,8.60
2023-01-21T03:25:13.182Z,8.60
2023-01-21T03:30:19.510Z,8.60
2023-01-21T03:35:34.474Z,8.60
2023-01-21T03:40:41.965Z,8.60
2023-01-21T03:45:51.592Z,8.60
2023-01-21T03:51:01.154Z,8.60
2023-01-21T03:56:05.315Z,8.60
2023-01-21T04:01:09.463Z,8.60
2023-01-21T04:06:16.057Z,8.60
2023-01-21T04:11:22.246Z,8.70
2023-01-21T04:16:25.839Z,8.60
2023-01-21T04:21:30.991Z,8.70
2023-01-21T04:26:34.515Z,8.70
2023-01-21T04:31:37.963Z,8.70
2023-01-21T04:36:43.234Z,8.70
2023-01-21T04:41:47.110Z,8.70
2023-01-21T04:46:50.801Z,8.80
2023-01-21T04:51:55.574Z,8.80
2023-01-21T04:56:59.303Z,8.80
2023-01-21T05:02:02.769Z,8.80
2023-01-21T05:07:07.671Z,8.70
2023-01-21T05:12:11.906Z,8.70
2023-01-21T05:17:15.416Z,8.70
2023-01-21T05:22:20.580Z,8.70
2023-01-21T05:27:24.130Z,8.70
2023-01-21T05:32:27.614Z,8.70
2023-01-21T05:37:32.751Z,8.70
2023-01-21T05:42:36.137Z,8.70
2023-01-21T05:47:39.691Z,8.70
2023-01-21T05:52:44.658Z,8.70
2023-01-21T05:57:48.096Z,8.70
2023-01-21T06:02:52.186Z,8.70
2023-01-21T06:07:57.489Z,8.80
2023-01-21T06:13:01.040Z,8.80
2023-01-21T06:18:04.721Z,8.80
2023-01-21T06:23:09.625Z,8.80
2023-01-21T06:28:13.533Z,8.80
2023-01-21T06:33:16.926Z,8.80
2023-01-21T06:38:22.344Z,8.80
2023-01-21T06:43:26.049Z,8.80
2023-01-21T06:48:29.522Z,8.90
2023-01-21T06:53:34.354Z,8.90
2023-01-21T06:58:37.949Z,9.00
2023-01-21T07:03:44.634Z,9.00
2023-01-21T07:08:49.617Z,9.00
2023-01-21T07:13:53.110Z,9.10
2023-01-21T07:18:56.577Z,9.10
2023-01-21T07:24:01.493Z,9.10
2023-01-21T07:29:06.189Z,9.10
2023-01-21T07:34:09.650Z,9.10
2023-01-21T07:39:14.424Z,9.10
2023-01-21T07:44:17.735Z,9.10
2023-01-21T07:49:21.332Z,9.10
2023-01-21T07:54:26.370Z,9.10
2023-01-21T07:59:30.039Z,9.10
2023-01-21T08:04:33.456Z,9.10
2023-01-21T08:09:39.686Z,9.10
2023-01-21T08:14:44.172Z,9.10
2023-01-21T08:19:47.692Z,9.10
2023-01-21T08:25:05.972Z,9.10
2023-01-21T08:30:10.810Z,9.10
2023-01-21T08:35:14.400Z,9.20
2023-01-21T08:40:19.569Z,9.20
2023-01-21T08:45:23.128Z,9.40
2023-01-21T08:50:26.597Z,10.00
2023-01-21T08:55:31.374Z,11.00
2023-01-21T09:00:34.805Z,12.10
2023-01-21T09:05:38.237Z,13.00
2023-01-21T09:11:11.983Z,13.50
2023-01-21T09:16:17.205Z,13.70
2023-01-21T09:21:20.694Z,13.60
2023-01-21T09:26:26.167Z,13.40
2023-01-21T09:31:31.373Z,13.20
2023-01-21T09:36:36.143Z,13.00
2023-01-21T09:41:46.079Z,12.60
2023-01-21T09:46:57.307Z,12.30
2023-01-21T09:52:10.284Z,12.00
2023-01-21T09:57:42.528Z,11.70
2023-01-21T10:02:55.001Z,11.30
2023-01-21T10:08:07.794Z,11.10
2023-01-21T10:13:42.261Z,10.80
2023-01-21T10:18:48.636Z,10.60
2023-01-21T10:23:57.506Z,10.40
2023-01-21T10:29:03.197Z,10.30
2023-01-21T10:34:13.105Z,10.20
2023-01-21T10:39:32.626Z,10.10
2023-01-21T10:44:44.639Z,10.00
2023-01-21T10:49:58.302Z,9.90
2023-01-21T10:55:08.568Z,9.90
2023-01-21T11:00:21.768Z,9.80
2023-01-21T11:05:27.384Z,9.80
2023-01-21T11:10:31.562Z,9.80
2023-01-21T11:15:37.441Z,9.70
2023-01-21T11:20:42.429Z,9.70
2023-01-21T11:25:45.921Z,9.60
2023-01-21T11:30:51.885Z,9.60
2023-01-21T11:35:58.435Z,9.60
2023-01-21T11:41:10.770Z,9.50
2023-01-21T11:46:32.536Z,9.50
2023-01-21T11:51:36.547Z,9.50
2023-01-21T11:56:40.756Z,9.50
2023-01-21T12:01:52.661Z,9.50
2023-01-21T12:07:00.543Z,9.50
2023-01-21T12:12:26.483Z,9.50
2023-01-21T12:17:50.915Z,9.50
2023-01-21T12:23:14.385Z,9.50
2023-01-21T12:28:36.306Z,9.50
2023-01-21T12:33:49.321Z,9.50
2023-01-21T12:38:58.722Z,9.50
2023-01-21T12:44:21.358Z,9.50
2023-01-21T12:49:30.594Z,9.50
2023-01-21T12:54:44.950Z,9.50
2023-01-21T12:59:52.228Z,9.60
2023-01-21T13:05:02.163Z,9.50
2023-01-21T13:10:20.560Z,9.60
2023-01-21T13:15:29.439Z,9.60
2023-01-21T13:20:38.919Z,9.60
2023-01-21T13:25:48.741Z,9.60
2023-01-21T13:30:57.310Z,9.60
2023-01-21T13:36:14.290Z,9.60
2023-01-21T13:41:38.743Z,9.60
2023-01-21T13:46:55.340Z,9.50
2023-01-21T13:52:08.782Z,9.60
2023-01-21T13:57:28.289Z,9.60
2023-01-21T14:02:38.834Z,9.60
2023-01-21T14:08:24.679Z,9.60
2023-01-21T14:14:04.353Z,9.60
2023-01-21T14:19:35.957Z,9.60
2023-01-21T14:25:04.024Z,9.50
2023-01-21T14:30:13.364Z,9.50
2023-01-21T14:35:23.953Z,9.50
2023-01-21T14:40:35.637Z,9.50
2023-01-21T14:45:57.230Z,9.40
2023-01-21T14:51:13.584Z,9.40
2023-01-21T14:56:26.873Z,9.30
2023-01-21T15:01:40.257Z,9.30
2023-01-21T15:06:45.133Z,9.30
2023-01-21T15:11:53.839Z,9.30
2023-01-21T15:16:57.760Z,9.30
2023-01-21T15:22:05.352Z,9.20
2023-01-21T15:27:18.813Z,9.10
2023-01-21T15:32:33.457Z,9.10
2023-01-21T15:37:40.464Z,9.10
2023-01-21T15:42:55.761Z,9.10
2023-01-21T15:48:30.122Z,9.00
2023-01-21T15:53:53.080Z,9.00
2023-01-21T15:59:09.957Z,9.10
2023-01-21T16:04:26.605Z,9.00
2023-01-21T16:09:38.872Z,9.00
2023-01-21T16:14:56.062Z,8.90
2023-01-21T16:20:01.832Z,9.00
2023-01-21T16:25:10.201Z,8.90
2023-01-21T16:30:22.773Z,8.90
2023-01-21T16:35:26.860Z,8.90
2023-01-21T16:40:31.297Z,8.90
2023-01-21T16:45:36.539Z,8.80
2023-01-21T16:50:47.892Z,8.80
2023-01-21T16:55:54.034Z,8.80
2023-01-21T17:01:07.060Z,8.90
2023-01-21T17:06:16.097Z,8.90
2023-01-21T17:11:20.601Z,8.90
2023-01-21T17:16:32.364Z,8.90
2023-01-21T17:21:39.678Z,8.90
2023-01-21T17:26:52.836Z,8.90
2023-01-21T17:32:03.236Z,8.90
2023-01-21T17:37:45.248Z,8.90
2023-01-21T17:42:51.837Z,8.90
2023-01-21T17:48:14.867Z,9.00
2023-01-21T17:53:24.910Z,9.00
2023-01-21T17:58:47.256Z,9.00
2023-01-21T18:03:53.269Z,9.00
2023-01-21T18:08:59.067Z,9.10
2023-01-21T18:14:02.874Z,9.10
2023-01-21T18:19:11.221Z,9.10
2023-01-21T18:24:15.019Z,9.00
2023-01-21T18:29:19.894Z,9.00
2023-01-21T18:34:25.711Z,9.00
2023-01-21T18:39:30.967Z,9.00
2023-01-21T18:44:35.188Z,9.00
2023-01-21T18:49:40.840Z,9.00
2023-01-21T18:54:46.003Z,9.00
2023-01-21T18:59:54.078Z,9.00
2023-01-21T19:05:00.049Z,9.10
2023-01-21T19:10:05.004Z,9.10
2023-01-21T19:15:15.117Z,9.10
2023-01-21T19:20:22.450Z,9.10
2023-01-21T19:25:28.845Z,9.10
2023-01-21T19:30:35.296Z,9.10
2023-01-21T19:35:48.062Z,9.20
2023-01-21T19:40:52.596Z,9.20
2023-01-21T19:46:00.692Z,9.20
2023-01-21T19:51:06.968Z,9.20
2023-01-21T19:56:19.888Z,9.30
2023-01-21T20:01:26.747Z,9.30
2023-01-21T20:06:46.892Z,9.30
2023-01-21T20:11:52.501Z,9.40
2023-01-21T20:16:57.500Z,9.40
2023-01-21T20:22:04.271Z,9.40
2023-01-21T20:27:10.854Z,9.40
2023-01-21T20:32:15.732Z,9.40
2023-01-21T20:37:22.393Z,9.50
2023-01-21T20:42:28.103Z,9.50
2023-01-21T20:47:38.751Z,9.50
2023-01-21T20:52:52.169Z,9.50
2023-01-21T20:57:56.887Z,9.50
2023-01-21T21:03:02.156Z,9.50
2023-01-21T21:08:08.998Z,9.50
2023-01-21T21:13:14.761Z,9.60
2023-01-21T21:18:18.486Z,9.60
2023-01-21T21:23:24.452Z,9.60
2023-01-21T21:28:28.297Z,9.60
2023-01-21T21:33:32.326Z,9.60
2023-01-21T21:38:37.185Z,9.50
2023-01-21T21:43:41.614Z,9.60
2023-01-21T21:48:46.747Z,9.60
2023-01-21T21:53:53.032Z,9.60
2023-01-21T21:58:57.001Z,9.60
2023-01-21T22:04:01.588Z,9.70
2023-01-21T22:09:07.156Z,9.70
2023-01-21T22:14:10.584Z,9.60
2023-01-21T22:19:14.297Z,9.60
2023-01-21T22:24:19.243Z,9.60
2023-01-21T22:29:22.603Z,9.60
2023-01-21T22:34:25.924Z,9.60
2023-01-21T22:39:31.333Z,9.60
2023-01-21T22:44:34.660Z,9.60
2023-01-21T22:49:38.101Z,9.60
2023-01-21T22:54:43.227Z,9.60
2023-01-21T22:59:47.749Z,9.50
2023-01-21T23:04:51.397Z,9.50
2023-01-21T23:09:56.492Z,9.50
2023-01-21T23:14:59.823Z,9.50
2023-01-21T23:20:04.494Z,9.40
2023-01-21T23:25:10.532Z,9.50
2023-01-21T23:30:15.201Z,9.50
2023-01-21T23:35:19.440Z,9.50
2023-01-21T23:40:24.245Z,9.50
2023-01-21T23:45:27.833Z,9.50
2023-01-21T23:50:31.315Z,9.50
2023-01-21T23:55:36.052Z,9.50
